sensor_id;sensor_type;location;lat;lon;timestamp;P1;durP1;ratioP1;P2;durP2;ratioP2
62010;SDS011;47967;51.756;10.174;2023-05-07T04:02:54;18.05;;;10.82;;
62010;SDS011;47967;51.756;10.174;2023-05-07T04:07:00;18.70;;;11.25;;
62010;SDS011;47967;51.756;10.174;2023-05-07T04:11:04;19.73;;;11.07;;
62010;SDS011;47967;51.756;10.174;2023-05-07T04:15:09;20.10;;;11.07;;
62010;SDS011;47967;51.756;10.174;2023-05-07T04:27:19;14.68;;;8.75;;
62010;SDS011;47967;51.756;10.174;2023-05-07T04:31:22;15.45;;;9.35;;
62010;SDS011;47967;51.756;10.174;2023-05-07T04:35:29;15.77;;;9.10;;
62010;SDS011;47967;51.756;10.174;2023-05-07T04:39:33;14.32;;;8.32;;
62010;SDS011;47967;51.756;10.174;2023-05-07T04:43:37;12.80;;;8.18;;
62010;SDS011;47967;51.756;10.174;2023-05-07T04:47:39;13.27;;;7.33;;
62010;SDS011;47967;51.756;10.174;2023-05-07T04:51:44;12.98;;;7.18;;
62010;SDS011;47967;51.756;10.174;2023-05-07T04:55:54;11.80;;;6.70;;
62010;SDS011;47967;51.756;10.174;2023-05-07T04:59:58;11.32;;;7.13;;
62010;SDS011;47967;51.756;10.174;2023-05-07T05:04:02;10.70;;;6.53;;
62010;SDS011;47967;51.756;10.174;2023-05-07T05:08:06;13.85;;;6.85;;
62010;SDS011;47967;51.756;10.174;2023-05-07T05:12:12;12.57;;;7.15;;
62010;SDS011;47967;51.756;10.174;2023-05-07T05:16:14;9.33;;;5.63;;
62010;SDS011;47967;51.756;10.174;2023-05-07T05:28:26;10.30;;;6.40;;
62010;SDS011;47967;51.756;10.174;2023-05-07T05:32:31;10.13;;;5.80;;
62010;SDS011;47967;51.756;10.174;2023-05-07T05:36:35;10.32;;;5.50;;
62010;SDS011;47967;51.756;10.174;2023-05-07T05:40:39;8.95;;;5.78;;
62010;SDS011;47967;51.756;10.174;2023-05-07T05:44:42;8.82;;;5.40;;
62010;SDS011;47967;51.756;10.174;2023-05-07T05:48:45;9.50;;;5.88;;
62010;SDS011;47967;51.756;10.174;2023-05-07T05:52:48;9.20;;;5.17;;
62010;SDS011;47967;51.756;10.174;2023-05-07T06:00:55;7.35;;;4.68;;
62010;SDS011;47967;51.756;10.174;2023-05-07T06:05:01;8.30;;;5.03;;
62010;SDS011;47967;51.756;10.174;2023-05-07T06:09:03;7.77;;;4.90;;
62010;SDS011;47967;51.756;10.174;2023-05-07T06:13:15;7.65;;;4.40;;
62010;SDS011;47967;51.756;10.174;2023-05-07T06:17:18;7.05;;;4.00;;
62010;SDS011;47967;51.756;10.174;2023-05-07T06:21:23;5.03;;;3.47;;
62010;SDS011;47967;51.756;10.174;2023-05-07T06:25:26;4.70;;;3.40;;
62010;SDS011;47967;51.756;10.174;2023-05-07T06:29:31;5.13;;;3.25;;
62010;SDS011;47967;51.756;10.174;2023-05-07T06:33:37;4.82;;;3.15;;
62010;SDS011;47967;51.756;10.174;2023-05-07T06:37:41;4.00;;;2.85;;
62010;SDS011;47967;51.756;10.174;2023-05-07T06:41:50;3.90;;;2.88;;
62010;SDS011;47967;51.756;10.174;2023-05-07T06:46:01;5.05;;;3.00;;
62010;SDS011;47967;51.756;10.174;2023-05-07T06:50:03;3.20;;;2.65;;
62010;SDS011;47967;51.756;10.174;2023-05-07T06:54:08;4.28;;;2.80;;
62010;SDS011;47967;51.756;10.174;2023-05-07T06:58:13;3.10;;;2.50;;
62010;SDS011;47967;51.756;10.174;2023-05-07T07:02:17;4.10;;;2.88;;
62010;SDS011;47967;51.756;10.174;2023-05-07T07:06:21;3.42;;;2.47;;
62010;SDS011;47967;51.756;10.174;2023-05-07T07:10:24;3.65;;;2.40;;
62010;SDS011;47967;51.756;10.174;2023-05-07T07:14:28;4.35;;;2.95;;
62010;SDS011;47967;51.756;10.174;2023-05-07T07:18:32;2.83;;;2.50;;
62010;SDS011;47967;51.756;10.174;2023-05-07T07:22:34;4.20;;;2.95;;
62010;SDS011;47967;51.756;10.174;2023-05-07T07:26:37;4.10;;;2.83;;
62010;SDS011;47967;51.756;10.174;2023-05-07T07:30:41;3.95;;;2.72;;
62010;SDS011;47967;51.756;10.174;2023-05-07T07:42:52;4.07;;;2.75;;
62010;SDS011;47967;51.756;10.174;2023-05-07T07:46:56;4.88;;;2.90;;
62010;SDS011;47967;51.756;10.174;2023-05-07T07:51:01;3.78;;;3.10;;
62010;SDS011;47967;51.756;10.174;2023-05-07T07:55:04;5.65;;;3.42;;
62010;SDS011;47967;51.756;10.174;2023-05-07T07:59:08;4.40;;;3.00;;
62010;SDS011;47967;51.756;10.174;2023-05-07T08:03:14;4.32;;;3.15;;
62010;SDS011;47967;51.756;10.174;2023-05-07T08:07:23;5.30;;;3.15;;
62010;SDS011;47967;51.756;10.174;2023-05-07T08:11:26;3.85;;;2.85;;
62010;SDS011;47967;51.756;10.174;2023-05-07T08:19:32;4.10;;;3.03;;
62010;SDS011;47967;51.756;10.174;2023-05-07T08:23:37;5.60;;;3.55;;
62010;SDS011;47967;51.756;10.174;2023-05-07T08:27:41;5.82;;;3.38;;
62010;SDS011;47967;51.756;10.174;2023-05-07T08:31:46;4.35;;;3.22;;
62010;SDS011;47967;51.756;10.174;2023-05-07T08:35:48;4.10;;;3.03;;
62010;SDS011;47967;51.756;10.174;2023-05-07T08:43:59;6.45;;;3.50;;
62010;SDS011;47967;51.756;10.174;2023-05-07T08:48:07;4.75;;;3.30;;
62010;SDS011;47967;51.756;10.174;2023-05-07T08:52:11;5.70;;;3.35;;
62010;SDS011;47967;51.756;10.174;2023-05-07T08:56:16;4.35;;;3.38;;
62010;SDS011;47967;51.756;10.174;2023-05-07T09:00:24;4.20;;;3.35;;
62010;SDS011;47967;51.756;10.174;2023-05-07T09:04:28;4.13;;;3.15;;
62010;SDS011;47967;51.756;10.174;2023-05-07T09:08:33;5.32;;;3.40;;
62010;SDS011;47967;51.756;10.174;2023-05-07T09:12:39;4.60;;;3.42;;
62010;SDS011;47967;51.756;10.174;2023-05-07T09:16:45;5.63;;;3.72;;
62010;SDS011;47967;51.756;10.174;2023-05-07T09:20:48;10.77;;;3.50;;
62010;SDS011;47967;51.756;10.174;2023-05-07T09:24:53;4.45;;;3.30;;
62010;SDS011;47967;51.756;10.174;2023-05-07T09:29:01;4.57;;;3.60;;
62010;SDS011;47967;51.756;10.174;2023-05-07T09:33:03;6.22;;;3.70;;
62010;SDS011;47967;51.756;10.174;2023-05-07T09:37:10;8.00;;;3.90;;
62010;SDS011;47967;51.756;10.174;2023-05-07T09:41:15;5.05;;;3.47;;
62010;SDS011;47967;51.756;10.174;2023-05-07T09:45:28;6.65;;;4.07;;
62010;SDS011;47967;51.756;10.174;2023-05-07T09:49:33;6.78;;;4.10;;
62010;SDS011;47967;51.756;10.174;2023-05-07T09:53:40;6.13;;;4.53;;
62010;SDS011;47967;51.756;10.174;2023-05-07T09:57:45;6.18;;;4.22;;
62010;SDS011;47967;51.756;10.174;2023-05-07T10:01:50;6.50;;;4.18;;
62010;SDS011;47967;51.756;10.174;2023-05-07T10:05:54;6.95;;;4.60;;
62010;SDS011;47967;51.756;10.174;2023-05-07T10:09:58;7.68;;;4.75;;
62010;SDS011;47967;51.756;10.174;2023-05-07T10:14:07;7.10;;;4.60;;
62010;SDS011;47967;51.756;10.174;2023-05-07T10:18:11;8.57;;;5.05;;
62010;SDS011;47967;51.756;10.174;2023-05-07T10:22:18;7.38;;;5.13;;
62010;SDS011;47967;51.756;10.174;2023-05-07T10:26:22;7.78;;;5.03;;
62010;SDS011;47967;51.756;10.174;2023-05-07T10:30:31;7.05;;;4.88;;
62010;SDS011;47967;51.756;10.174;2023-05-07T10:34:43;8.57;;;5.30;;
62010;SDS011;47967;51.756;10.174;2023-05-07T10:38:50;7.47;;;5.03;;
62010;SDS011;47967;51.756;10.174;2023-05-07T10:42:55;8.18;;;5.15;;
62010;SDS011;47967;51.756;10.174;2023-05-07T10:47:03;7.32;;;4.85;;
62010;SDS011;47967;51.756;10.174;2023-05-07T10:51:21;7.35;;;5.05;;
62010;SDS011;47967;51.756;10.174;2023-05-07T10:55:35;7.47;;;5.00;;
62010;SDS011;47967;51.756;10.174;2023-05-07T10:59:52;7.32;;;4.70;;
62010;SDS011;47967;51.756;10.174;2023-05-07T11:04:13;8.88;;;5.05;;
62010;SDS011;47967;51.756;10.174;2023-05-07T11:08:26;6.40;;;4.70;;
62010;SDS011;47967;51.756;10.174;2023-05-07T11:12:58;7.35;;;4.78;;
62010;SDS011;47967;51.756;10.174;2023-05-07T11:21:33;7.88;;;5.00;;
62010;SDS011;47967;51.756;10.174;2023-05-07T11:25:55;7.97;;;4.72;;
62010;SDS011;47967;51.756;10.174;2023-05-07T11:30:02;6.95;;;4.70;;
62010;SDS011;47967;51.756;10.174;2023-05-07T11:34:05;7.53;;;4.90;;
62010;SDS011;47967;51.756;10.174;2023-05-07T11:38:09;7.90;;;5.53;;
62010;SDS011;47967;51.756;10.174;2023-05-07T11:42:29;7.50;;;5.05;;
62010;SDS011;47967;51.756;10.174;2023-05-07T11:46:33;6.47;;;4.60;;
62010;SDS011;47967;51.756;10.174;2023-05-07T11:50:36;7.35;;;4.93;;
62010;SDS011;47967;51.756;10.174;2023-05-07T11:54:38;9.65;;;5.60;;
62010;SDS011;47967;51.756;10.174;2023-05-07T11:58:43;8.65;;;5.35;;
62010;SDS011;47967;51.756;10.174;2023-05-07T12:02:46;7.47;;;4.97;;
62010;SDS011;47967;51.756;10.174;2023-05-07T12:06:49;8.18;;;5.70;;
62010;SDS011;47967;51.756;10.174;2023-05-07T12:10:57;7.82;;;5.28;;
62010;SDS011;47967;51.756;10.174;2023-05-07T12:15:01;8.80;;;5.90;;
62010;SDS011;47967;51.756;10.174;2023-05-07T12:19:03;7.75;;;5.35;;
62010;SDS011;47967;51.756;10.174;2023-05-07T12:23:07;10.32;;;6.00;;
62010;SDS011;47967;51.756;10.174;2023-05-07T12:27:10;8.40;;;5.70;;
62010;SDS011;47967;51.756;10.174;2023-05-07T12:31:14;7.65;;;5.63;;
62010;SDS011;47967;51.756;10.174;2023-05-07T12:35:25;8.38;;;5.63;;
62010;SDS011;47967;51.756;10.174;2023-05-07T12:39:28;7.95;;;5.50;;
62010;SDS011;47967;51.756;10.174;2023-05-07T12:43:31;6.72;;;5.10;;
62010;SDS011;47967;51.756;10.174;2023-05-07T12:47:35;8.27;;;5.35;;
62010;SDS011;47967;51.756;10.174;2023-05-07T12:51:37;6.43;;;4.90;;
62010;SDS011;47967;51.756;10.174;2023-05-07T12:55:40;6.78;;;4.50;;
62010;SDS011;47967;51.756;10.174;2023-05-07T12:59:44;6.78;;;4.65;;
62010;SDS011;47967;51.756;10.174;2023-05-07T13:03:48;6.88;;;4.90;;
62010;SDS011;47967;51.756;10.174;2023-05-07T13:07:52;5.85;;;4.50;;
62010;SDS011;47967;51.756;10.174;2023-05-07T13:11:55;6.68;;;4.40;;
62010;SDS011;47967;51.756;10.174;2023-05-07T13:16:01;5.10;;;3.85;;
62010;SDS011;47967;51.756;10.174;2023-05-07T13:20:06;4.60;;;3.85;;
62010;SDS011;47967;51.756;10.174;2023-05-07T13:24:11;5.07;;;4.05;;
62010;SDS011;47967;51.756;10.174;2023-05-07T13:28:13;4.72;;;3.90;;
62010;SDS011;47967;51.756;10.174;2023-05-07T13:32:16;6.82;;;4.43;;
62010;SDS011;47967;51.756;10.174;2023-05-07T13:36:20;7.22;;;4.80;;
62010;SDS011;47967;51.756;10.174;2023-05-07T13:40:23;5.95;;;4.60;;
62010;SDS011;47967;51.756;10.174;2023-05-07T13:48:28;6.45;;;4.90;;
62010;SDS011;47967;51.756;10.174;2023-05-07T13:52:32;8.20;;;6.20;;
62010;SDS011;47967;51.756;10.174;2023-05-07T13:56:34;7.70;;;6.05;;
62010;SDS011;47967;51.756;10.174;2023-05-07T14:00:37;8.38;;;6.38;;
62010;SDS011;47967;51.756;10.174;2023-05-07T14:04:39;7.40;;;6.30;;
62010;SDS011;47967;51.756;10.174;2023-05-07T14:08:43;7.43;;;5.25;;
62010;SDS011;47967;51.756;10.174;2023-05-07T14:12:46;7.75;;;5.75;;
62010;SDS011;47967;51.756;10.174;2023-05-07T14:20:52;7.00;;;5.22;;
62010;SDS011;47967;51.756;10.174;2023-05-07T14:24:55;7.38;;;5.63;;
62010;SDS011;47967;51.756;10.174;2023-05-07T14:29:16;6.65;;;5.40;;
62010;SDS011;47967;51.756;10.174;2023-05-07T14:33:24;5.93;;;4.68;;
62010;SDS011;47967;51.756;10.174;2023-05-07T14:37:27;6.05;;;4.90;;
62010;SDS011;47967;51.756;10.174;2023-05-07T14:41:31;14.48;;;9.35;;
62010;SDS011;47967;51.756;10.174;2023-05-07T14:45:34;6.45;;;5.07;;
62010;SDS011;47967;51.756;10.174;2023-05-07T14:49:37;5.88;;;5.00;;
62010;SDS011;47967;51.756;10.174;2023-05-07T14:57:44;5.07;;;4.30;;
62010;SDS011;47967;51.756;10.174;2023-05-07T15:01:46;10.15;;;7.45;;
62010;SDS011;47967;51.756;10.174;2023-05-07T15:05:50;7.25;;;5.38;;
62010;SDS011;47967;51.756;10.174;2023-05-07T15:09:52;15.00;;;8.48;;
62010;SDS011;47967;51.756;10.174;2023-05-07T15:13:56;6.05;;;5.00;;
62010;SDS011;47967;51.756;10.174;2023-05-07T15:17:59;5.90;;;4.55;;
62010;SDS011;47967;51.756;10.174;2023-05-07T15:22:02;7.35;;;5.57;;
62010;SDS011;47967;51.756;10.174;2023-05-07T15:26:04;6.40;;;5.43;;
62010;SDS011;47967;51.756;10.174;2023-05-07T15:30:10;6.00;;;5.03;;
62010;SDS011;47967;51.756;10.174;2023-05-07T15:34:15;7.75;;;5.80;;
62010;SDS011;47967;51.756;10.174;2023-05-07T15:38:17;7.63;;;5.22;;
62010;SDS011;47967;51.756;10.174;2023-05-07T15:46:24;9.02;;;7.68;;
62010;SDS011;47967;51.756;10.174;2023-05-07T15:50:28;8.05;;;6.20;;
62010;SDS011;47967;51.756;10.174;2023-05-07T15:54:30;9.25;;;7.00;;
62010;SDS011;47967;51.756;10.174;2023-05-07T15:58:33;9.65;;;6.78;;
62010;SDS011;47967;51.756;10.174;2023-05-07T16:02:37;12.55;;;9.15;;
62010;SDS011;47967;51.756;10.174;2023-05-07T16:06:40;13.15;;;8.82;;
62010;SDS011;47967;51.756;10.174;2023-05-07T16:10:45;11.02;;;7.90;;
62010;SDS011;47967;51.756;10.174;2023-05-07T16:14:47;7.93;;;6.68;;
62010;SDS011;47967;51.756;10.174;2023-05-07T16:18:53;8.40;;;6.75;;
62010;SDS011;47967;51.756;10.174;2023-05-07T16:22:55;10.00;;;7.40;;
62010;SDS011;47967;51.756;10.174;2023-05-07T16:26:58;7.88;;;6.30;;
62010;SDS011;47967;51.756;10.174;2023-05-07T16:31:01;8.48;;;6.60;;
62010;SDS011;47967;51.756;10.174;2023-05-07T16:35:05;7.63;;;6.30;;
62010;SDS011;47967;51.756;10.174;2023-05-07T16:39:09;9.20;;;6.55;;
62010;SDS011;47967;51.756;10.174;2023-05-07T16:43:11;12.18;;;7.53;;
62010;SDS011;47967;51.756;10.174;2023-05-07T16:47:14;7.20;;;5.70;;
62010;SDS011;47967;51.756;10.174;2023-05-07T16:51:17;8.02;;;6.45;;
62010;SDS011;47967;51.756;10.174;2023-05-07T16:55:20;7.15;;;5.97;;
62010;SDS011;47967;51.756;10.174;2023-05-07T16:59:23;10.30;;;7.47;;
62010;SDS011;47967;51.756;10.174;2023-05-07T17:03:25;6.90;;;5.68;;
62010;SDS011;47967;51.756;10.174;2023-05-07T17:07:30;7.43;;;6.10;;
62010;SDS011;47967;51.756;10.174;2023-05-07T17:11:33;7.22;;;5.68;;
62010;SDS011;47967;51.756;10.174;2023-05-07T17:15:35;7.72;;;5.43;;
62010;SDS011;47967;51.756;10.174;2023-05-07T17:19:38;6.57;;;5.28;;
62010;SDS011;47967;51.756;10.174;2023-05-07T17:23:42;6.53;;;5.15;;
62010;SDS011;47967;51.756;10.174;2023-05-07T17:27:45;6.28;;;4.32;;
62010;SDS011;47967;51.756;10.174;2023-05-07T17:31:47;4.90;;;4.07;;
62010;SDS011;47967;51.756;10.174;2023-05-07T17:35:51;4.75;;;3.97;;
62010;SDS011;47967;51.756;10.174;2023-05-07T17:39:56;8.23;;;4.93;;
62010;SDS011;47967;51.756;10.174;2023-05-07T17:43:58;7.30;;;4.88;;
62010;SDS011;47967;51.756;10.174;2023-05-07T17:48:01;12.83;;;6.67;;
62010;SDS011;47967;51.756;10.174;2023-05-07T17:52:04;6.43;;;5.10;;
62010;SDS011;47967;51.756;10.174;2023-05-07T17:56:08;7.00;;;5.10;;
62010;SDS011;47967;51.756;10.174;2023-05-07T18:00:11;9.02;;;5.10;;
62010;SDS011;47967;51.756;10.174;2023-05-07T18:04:15;7.75;;;5.68;;
62010;SDS011;47967;51.756;10.174;2023-05-07T18:08:19;7.53;;;5.20;;
62010;SDS011;47967;51.756;10.174;2023-05-07T18:12:23;8.30;;;6.13;;
62010;SDS011;47967;51.756;10.174;2023-05-07T18:16:28;13.05;;;9.35;;
62010;SDS011;47967;51.756;10.174;2023-05-07T18:20:30;8.40;;;5.80;;
62010;SDS011;47967;51.756;10.174;2023-05-07T18:24:33;10.13;;;7.03;;
62010;SDS011;47967;51.756;10.174;2023-05-07T18:28:37;13.00;;;10.45;;
62010;SDS011;47967;51.756;10.174;2023-05-07T18:32:39;12.45;;;8.45;;
62010;SDS011;47967;51.756;10.174;2023-05-07T18:36:42;8.93;;;6.53;;
62010;SDS011;47967;51.756;10.174;2023-05-07T18:40:45;8.00;;;5.70;;
62010;SDS011;47967;51.756;10.174;2023-05-07T18:44:49;8.45;;;6.15;;
62010;SDS011;47967;51.756;10.174;2023-05-07T18:48:51;27.15;;;15.60;;
62010;SDS011;47967;51.756;10.174;2023-05-07T18:52:55;7.57;;;5.68;;
62010;SDS011;47967;51.756;10.174;2023-05-07T18:56:57;7.67;;;5.80;;
62010;SDS011;47967;51.756;10.174;2023-05-07T19:01:01;11.63;;;7.10;;
62010;SDS011;47967;51.756;10.174;2023-05-07T19:05:08;9.60;;;5.55;;
62010;SDS011;47967;51.756;10.174;2023-05-07T19:09:11;7.23;;;5.60;;
62010;SDS011;47967;51.756;10.174;2023-05-07T19:13:13;7.27;;;5.17;;
62010;SDS011;47967;51.756;10.174;2023-05-07T19:17:17;14.37;;;9.73;;
62010;SDS011;47967;51.756;10.174;2023-05-07T19:21:20;13.18;;;8.93;;
62010;SDS011;47967;51.756;10.174;2023-05-07T19:25:22;9.40;;;6.40;;
62010;SDS011;47967;51.756;10.174;2023-05-07T19:29:25;9.00;;;5.97;;
62010;SDS011;47967;51.756;10.174;2023-05-07T19:33:29;8.90;;;5.63;;
62010;SDS011;47967;51.756;10.174;2023-05-07T19:37:32;9.15;;;6.38;;
62010;SDS011;47967;51.756;10.174;2023-05-07T19:41:34;7.90;;;5.80;;
62010;SDS011;47967;51.756;10.174;2023-05-07T19:45:37;9.57;;;6.43;;
62010;SDS011;47967;51.756;10.174;2023-05-07T19:49:44;6.22;;;4.57;;
62010;SDS011;47967;51.756;10.174;2023-05-07T19:53:46;6.93;;;4.85;;
62010;SDS011;47967;51.756;10.174;2023-05-07T19:57:49;9.70;;;5.83;;
62010;SDS011;47967;51.756;10.174;2023-05-07T20:01:51;6.33;;;4.50;;
62010;SDS011;47967;51.756;10.174;2023-05-07T20:05:55;7.77;;;4.63;;
62010;SDS011;47967;51.756;10.174;2023-05-07T20:09:58;9.38;;;4.82;;
62010;SDS011;47967;51.756;10.174;2023-05-07T20:14:01;6.83;;;4.67;;
62010;SDS011;47967;51.756;10.174;2023-05-07T20:18:04;7.32;;;4.70;;
62010;SDS011;47967;51.756;10.174;2023-05-07T20:22:08;8.33;;;5.07;;
62010;SDS011;47967;51.756;10.174;2023-05-07T20:26:11;8.60;;;5.32;;
62010;SDS011;47967;51.756;10.174;2023-05-07T20:30:13;7.00;;;4.70;;
62010;SDS011;47967;51.756;10.174;2023-05-07T20:34:16;5.18;;;4.38;;
62010;SDS011;47967;51.756;10.174;2023-05-07T20:38:20;6.90;;;4.97;;
62010;SDS011;47967;51.756;10.174;2023-05-07T20:42:23;6.90;;;4.80;;
62010;SDS011;47967;51.756;10.174;2023-05-07T20:46:26;6.72;;;4.78;;
62010;SDS011;47967;51.756;10.174;2023-05-07T20:50:29;7.13;;;5.22;;
62010;SDS011;47967;51.756;10.174;2023-05-07T20:54:34;7.03;;;4.93;;
62010;SDS011;47967;51.756;10.174;2023-05-07T20:58:40;8.25;;;5.18;;
